Aviation Digital Data Service (ADDS)

Output produced by METARs form (0243 UTC 23 May 2015)
found at http://aviationweather.gov/adds/metars/
 
KGSO 230203Z 2302/2324 VRB05KT P6SM FEW150